Terminal Aerodrome Forecast
Issued by NWS

Home | Current Version | Previous Version | Graphics & Text | Print | Product List | Glossary On
Versions: 1 2 3 4 5 6 7 8 9 10 11 12 13 14 15 16
000
FTUS43 KABR 041000 CCA
TAFATY
TAF COR
KATY 041057Z 0411/0506 25006KT P6SM BKN040
      TEMPO 0411/0414 1SM -SN OVC015
     FM041600 33017G26KT P6SM BKN025
     FM050100 VRB03KT P6SM SKC=

USA.gov is the U.S. government's official web portal to all federal, state and local government web resources and services.